sensor_id;sensor_type;location;lat;lon;timestamp;temperature;humidity
1988;DHT22;12775;46.994;15.498;2023-04-10T00:01:13;9.00;94.00
1988;DHT22;12775;46.994;15.498;2023-04-10T00:03:40;9.00;94.20
1988;DHT22;12775;46.994;15.498;2023-04-10T00:06:07;9.00;94.30
1988;DHT22;12775;46.994;15.498;2023-04-10T00:08:35;9.00;94.20
1988;DHT22;12775;46.994;15.498;2023-04-10T00:11:03;9.00;94.50
1988;DHT22;12775;46.994;15.498;2023-04-10T00:13:31;9.00;94.10
1988;DHT22;12775;46.994;15.498;2023-04-10T00:15:59;8.90;93.90
1988;DHT22;12775;46.994;15.498;2023-04-10T00:18:27;8.90;94.00
1988;DHT22;12775;46.994;15.498;2023-04-10T00:20:54;8.90;94.50
1988;DHT22;12775;46.994;15.498;2023-04-10T00:23:21;8.90;94.00
1988;DHT22;12775;46.994;15.498;2023-04-10T00:25:49;8.90;94.10
1988;DHT22;12775;46.994;15.498;2023-04-10T00:28:16;8.90;94.00
1988;DHT22;12775;46.994;15.498;2023-04-10T00:30:43;8.90;93.70
1988;DHT22;12775;46.994;15.498;2023-04-10T00:33:11;8.90;93.80
1988;DHT22;12775;46.994;15.498;2023-04-10T00:35:38;8.90;93.60
1988;DHT22;12775;46.994;15.498;2023-04-10T00:38:06;8.90;93.80
1988;DHT22;12775;46.994;15.498;2023-04-10T00:40:34;8.90;94.50
1988;DHT22;12775;46.994;15.498;2023-04-10T00:43:01;8.80;94.00
1988;DHT22;12775;46.994;15.498;2023-04-10T00:45:28;8.90;94.60
1988;DHT22;12775;46.994;15.498;2023-04-10T00:47:56;8.90;94.60
1988;DHT22;12775;46.994;15.498;2023-04-10T00:50:23;8.80;94.70
1988;DHT22;12775;46.994;15.498;2023-04-10T00:52:50;8.80;94.70
1988;DHT22;12775;46.994;15.498;2023-04-10T00:55:18;8.80;94.60
1988;DHT22;12775;46.994;15.498;2023-04-10T00:57:45;8.80;94.70
1988;DHT22;12775;46.994;15.498;2023-04-10T01:00:13;8.80;95.10
1988;DHT22;12775;46.994;15.498;2023-04-10T01:02:40;8.80;95.10
1988;DHT22;12775;46.994;15.498;2023-04-10T01:05:07;8.80;95.10
1988;DHT22;12775;46.994;15.498;2023-04-10T01:07:53;8.80;95.30
1988;DHT22;12775;46.994;15.498;2023-04-10T01:10:25;8.70;94.80
1988;DHT22;12775;46.994;15.498;2023-04-10T01:12:50;8.70;94.80
1988;DHT22;12775;46.994;15.498;2023-04-10T01:15:15;8.70;94.30
1988;DHT22;12775;46.994;15.498;2023-04-10T01:18:52;8.70;94.40
1988;DHT22;12775;46.994;15.498;2023-04-10T01:20:32;8.70;94.10
1988;DHT22;12775;46.994;15.498;2023-04-10T01:26:03;8.70;94.30
1988;DHT22;12775;46.994;15.498;2023-04-10T01:28:42;8.70;94.90
1988;DHT22;12775;46.994;15.498;2023-04-10T01:31:04;8.70;94.90
1988;DHT22;12775;46.994;15.498;2023-04-10T01:33:34;8.70;95.10
1988;DHT22;12775;46.994;15.498;2023-04-10T01:35:59;8.60;95.40
1988;DHT22;12775;46.994;15.498;2023-04-10T01:38:26;8.60;95.20
1988;DHT22;12775;46.994;15.498;2023-04-10T01:40:54;8.60;95.70
1988;DHT22;12775;46.994;15.498;2023-04-10T01:43:21;8.60;95.40
1988;DHT22;12775;46.994;15.498;2023-04-10T01:45:49;8.60;95.50
1988;DHT22;12775;46.994;15.498;2023-04-10T01:48:16;8.60;95.50
1988;DHT22;12775;46.994;15.498;2023-04-10T01:50:45;8.50;95.50
1988;DHT22;12775;46.994;15.498;2023-04-10T01:53:12;8.50;96.10
1988;DHT22;12775;46.994;15.498;2023-04-10T01:55:38;8.50;96.00
1988;DHT22;12775;46.994;15.498;2023-04-10T01:58:05;8.50;95.80
1988;DHT22;12775;46.994;15.498;2023-04-10T02:00:37;8.40;95.40
1988;DHT22;12775;46.994;15.498;2023-04-10T02:03:03;8.40;94.70
1988;DHT22;12775;46.994;15.498;2023-04-10T02:05:32;8.40;95.00
1988;DHT22;12775;46.994;15.498;2023-04-10T02:08:04;8.30;95.10
1988;DHT22;12775;46.994;15.498;2023-04-10T02:10:29;8.20;95.20
1988;DHT22;12775;46.994;15.498;2023-04-10T02:12:58;8.20;95.20
1988;DHT22;12775;46.994;15.498;2023-04-10T02:15:22;8.20;94.90
1988;DHT22;12775;46.994;15.498;2023-04-10T02:17:49;8.10;94.40
1988;DHT22;12775;46.994;15.498;2023-04-10T02:20:16;8.00;94.20
1988;DHT22;12775;46.994;15.498;2023-04-10T02:22:44;8.00;94.10
1988;DHT22;12775;46.994;15.498;2023-04-10T02:25:13;7.90;93.80
1988;DHT22;12775;46.994;15.498;2023-04-10T02:27:40;7.80;93.40
1988;DHT22;12775;46.994;15.498;2023-04-10T02:30:08;7.70;93.50
1988;DHT22;12775;46.994;15.498;2023-04-10T02:32:36;7.70;93.50
1988;DHT22;12775;46.994;15.498;2023-04-10T02:35:04;7.60;93.20
1988;DHT22;12775;46.994;15.498;2023-04-10T02:37:30;7.60;93.10
1988;DHT22;12775;46.994;15.498;2023-04-10T02:39:57;7.60;93.10
1988;DHT22;12775;46.994;15.498;2023-04-10T02:42:24;7.40;93.70
1988;DHT22;12775;46.994;15.498;2023-04-10T02:44:50;7.30;93.90
1988;DHT22;12775;46.994;15.498;2023-04-10T02:47:17;7.30;93.90
1988;DHT22;12775;46.994;15.498;2023-04-10T02:49:44;7.20;93.80
1988;DHT22;12775;46.994;15.498;2023-04-10T02:52:12;7.10;93.90
1988;DHT22;12775;46.994;15.498;2023-04-10T02:54:39;7.10;93.40
1988;DHT22;12775;46.994;15.498;2023-04-10T02:57:06;7.00;93.70
1988;DHT22;12775;46.994;15.498;2023-04-10T02:59:34;7.00;93.60
1988;DHT22;12775;46.994;15.498;2023-04-10T03:02:00;7.00;93.60
1988;DHT22;12775;46.994;15.498;2023-04-10T03:04:30;6.90;93.90
1988;DHT22;12775;46.994;15.498;2023-04-10T03:06:55;6.90;94.40
1988;DHT22;12775;46.994;15.498;2023-04-10T03:09:22;6.90;94.80
1988;DHT22;12775;46.994;15.498;2023-04-10T03:11:50;6.90;94.70
1988;DHT22;12775;46.994;15.498;2023-04-10T03:14:17;6.90;95.10
1988;DHT22;12775;46.994;15.498;2023-04-10T03:16:44;6.90;95.60
1988;DHT22;12775;46.994;15.498;2023-04-10T03:19:12;6.90;95.70
1988;DHT22;12775;46.994;15.498;2023-04-10T03:21:39;6.90;96.00
1988;DHT22;12775;46.994;15.498;2023-04-10T03:24:06;6.90;95.80
1988;DHT22;12775;46.994;15.498;2023-04-10T03:26:34;6.90;95.60
1988;DHT22;12775;46.994;15.498;2023-04-10T03:29:01;6.90;95.60
1988;DHT22;12775;46.994;15.498;2023-04-10T03:31:28;6.90;96.20
1988;DHT22;12775;46.994;15.498;2023-04-10T03:33:57;7.00;96.40
1988;DHT22;12775;46.994;15.498;2023-04-10T03:36:23;6.90;96.30
1988;DHT22;12775;46.994;15.498;2023-04-10T03:38:51;7.00;96.40
1988;DHT22;12775;46.994;15.498;2023-04-10T03:41:18;7.00;96.10
1988;DHT22;12775;46.994;15.498;2023-04-10T03:43:45;6.90;96.00
1988;DHT22;12775;46.994;15.498;2023-04-10T03:46:11;7.00;95.70
1988;DHT22;12775;46.994;15.498;2023-04-10T03:48:39;6.90;95.60
1988;DHT22;12775;46.994;15.498;2023-04-10T03:51:06;7.00;95.60
1988;DHT22;12775;46.994;15.498;2023-04-10T03:53:34;6.90;95.70
1988;DHT22;12775;46.994;15.498;2023-04-10T03:56:01;6.80;96.60
1988;DHT22;12775;46.994;15.498;2023-04-10T03:58:28;6.70;96.60
1988;DHT22;12775;46.994;15.498;2023-04-10T04:00:56;6.70;96.20
1988;DHT22;12775;46.994;15.498;2023-04-10T04:03:23;6.60;96.40
1988;DHT22;12775;46.994;15.498;2023-04-10T04:05:50;6.60;96.90
1988;DHT22;12775;46.994;15.498;2023-04-10T04:08:18;6.50;96.30
1988;DHT22;12775;46.994;15.498;2023-04-10T04:10:45;6.50;96.20
1988;DHT22;12775;46.994;15.498;2023-04-10T04:13:14;6.50;96.20
1988;DHT22;12775;46.994;15.498;2023-04-10T04:15:41;6.50;95.70
1988;DHT22;12775;46.994;15.498;2023-04-10T04:18:08;6.40;95.60
1988;DHT22;12775;46.994;15.498;2023-04-10T04:20:34;6.50;95.50
1988;DHT22;12775;46.994;15.498;2023-04-10T04:23:01;6.50;95.00
1988;DHT22;12775;46.994;15.498;2023-04-10T04:25:29;6.40;94.70
1988;DHT22;12775;46.994;15.498;2023-04-10T04:27:56;6.50;94.30
1988;DHT22;12775;46.994;15.498;2023-04-10T04:30:24;6.40;94.10
1988;DHT22;12775;46.994;15.498;2023-04-10T04:32:51;6.40;94.00
1988;DHT22;12775;46.994;15.498;2023-04-10T04:35:18;6.40;94.10
1988;DHT22;12775;46.994;15.498;2023-04-10T04:37:46;6.40;94.20
1988;DHT22;12775;46.994;15.498;2023-04-10T04:40:13;6.30;93.90
1988;DHT22;12775;46.994;15.498;2023-04-10T04:42:40;6.30;93.90
1988;DHT22;12775;46.994;15.498;2023-04-10T04:45:09;6.30;93.80
1988;DHT22;12775;46.994;15.498;2023-04-10T04:47:35;6.20;94.00
1988;DHT22;12775;46.994;15.498;2023-04-10T04:50:03;6.20;93.90
1988;DHT22;12775;46.994;15.498;2023-04-10T04:52:30;6.10;93.90
1988;DHT22;12775;46.994;15.498;2023-04-10T04:54:57;6.00;94.00
1988;DHT22;12775;46.994;15.498;2023-04-10T04:57:25;6.00;94.30
1988;DHT22;12775;46.994;15.498;2023-04-10T04:59:52;5.90;94.40
1988;DHT22;12775;46.994;15.498;2023-04-10T05:02:20;5.90;94.70
1988;DHT22;12775;46.994;15.498;2023-04-10T05:04:48;5.80;95.10
1988;DHT22;12775;46.994;15.498;2023-04-10T05:07:15;5.80;95.40
1988;DHT22;12775;46.994;15.498;2023-04-10T05:09:42;5.70;95.50
1988;DHT22;12775;46.994;15.498;2023-04-10T05:12:10;5.60;95.80
1988;DHT22;12775;46.994;15.498;2023-04-10T05:14:37;5.60;96.10
1988;DHT22;12775;46.994;15.498;2023-04-10T05:17:04;5.60;96.40
1988;DHT22;12775;46.994;15.498;2023-04-10T05:19:32;5.60;96.90
1988;DHT22;12775;46.994;15.498;2023-04-10T05:21:59;5.60;97.70
1988;DHT22;12775;46.994;15.498;2023-04-10T05:24:26;5.60;97.80
1988;DHT22;12775;46.994;15.498;2023-04-10T05:26:54;5.60;98.00
1988;DHT22;12775;46.994;15.498;2023-04-10T05:29:21;5.60;98.40
1988;DHT22;12775;46.994;15.498;2023-04-10T05:31:48;5.60;98.40
1988;DHT22;12775;46.994;15.498;2023-04-10T05:34:14;5.60;99.20
1988;DHT22;12775;46.994;15.498;2023-04-10T05:36:41;5.60;99.70
1988;DHT22;12775;46.994;15.498;2023-04-10T05:39:08;5.80;99.90
1988;DHT22;12775;46.994;15.498;2023-04-10T05:41:36;6.10;99.90
1988;DHT22;12775;46.994;15.498;2023-04-10T05:44:03;6.40;99.90
1988;DHT22;12775;46.994;15.498;2023-04-10T05:46:31;6.60;99.90
1988;DHT22;12775;46.994;15.498;2023-04-10T05:48:59;6.60;98.90
1988;DHT22;12775;46.994;15.498;2023-04-10T05:51:26;6.60;99.60
1988;DHT22;12775;46.994;15.498;2023-04-10T05:53:54;6.70;99.90
1988;DHT22;12775;46.994;15.498;2023-04-10T05:56:21;6.70;99.80
1988;DHT22;12775;46.994;15.498;2023-04-10T05:58:48;6.80;99.90
1988;DHT22;12775;46.994;15.498;2023-04-10T06:01:16;7.00;99.90
1988;DHT22;12775;46.994;15.498;2023-04-10T06:03:43;7.00;99.50
1988;DHT22;12775;46.994;15.498;2023-04-10T06:06:10;6.90;99.50
1988;DHT22;12775;46.994;15.498;2023-04-10T06:08:37;7.00;99.60
1988;DHT22;12775;46.994;15.498;2023-04-10T06:11:05;7.10;99.90
1988;DHT22;12775;46.994;15.498;2023-04-10T06:13:33;7.10;99.90
1988;DHT22;12775;46.994;15.498;2023-04-10T06:16:01;7.20;99.90
1988;DHT22;12775;46.994;15.498;2023-04-10T06:18:29;7.30;99.90
1988;DHT22;12775;46.994;15.498;2023-04-10T06:20:56;7.50;99.90
1988;DHT22;12775;46.994;15.498;2023-04-10T06:23:23;7.70;99.90
1988;DHT22;12775;46.994;15.498;2023-04-10T06:25:51;8.00;99.90
1988;DHT22;12775;46.994;15.498;2023-04-10T06:28:19;8.30;99.90
1988;DHT22;12775;46.994;15.498;2023-04-10T06:30:46;8.60;99.90
1988;DHT22;12775;46.994;15.498;2023-04-10T06:33:14;8.80;99.90
1988;DHT22;12775;46.994;15.498;2023-04-10T06:35:41;9.00;99.90
1988;DHT22;12775;46.994;15.498;2023-04-10T06:38:08;9.20;99.90
1988;DHT22;12775;46.994;15.498;2023-04-10T06:40:36;9.40;99.90
1988;DHT22;12775;46.994;15.498;2023-04-10T06:43:03;9.70;99.90
1988;DHT22;12775;46.994;15.498;2023-04-10T06:45:31;10.00;99.90
1988;DHT22;12775;46.994;15.498;2023-04-10T06:47:58;10.20;99.50
1988;DHT22;12775;46.994;15.498;2023-04-10T06:50:25;10.30;99.90
1988;DHT22;12775;46.994;15.498;2023-04-10T06:52:54;10.60;99.90
1988;DHT22;12775;46.994;15.498;2023-04-10T06:55:22;10.80;98.90
1988;DHT22;12775;46.994;15.498;2023-04-10T06:57:49;11.10;98.80
1988;DHT22;12775;46.994;15.498;2023-04-10T07:00:17;11.20;98.50
1988;DHT22;12775;46.994;15.498;2023-04-10T07:02:44;11.50;98.40
1988;DHT22;12775;46.994;15.498;2023-04-10T07:05:12;11.50;97.60
1988;DHT22;12775;46.994;15.498;2023-04-10T07:07:39;11.70;96.70
1988;DHT22;12775;46.994;15.498;2023-04-10T07:10:07;11.90;95.90
1988;DHT22;12775;46.994;15.498;2023-04-10T07:12:35;12.10;96.20
1988;DHT22;12775;46.994;15.498;2023-04-10T07:15:02;12.30;92.20
1988;DHT22;12775;46.994;15.498;2023-04-10T07:17:29;12.30;92.40
1988;DHT22;12775;46.994;15.498;2023-04-10T07:19:58;12.50;95.40
1988;DHT22;12775;46.994;15.498;2023-04-10T07:22:25;12.70;93.00
1988;DHT22;12775;46.994;15.498;2023-04-10T07:24:53;12.80;93.80
1988;DHT22;12775;46.994;15.498;2023-04-10T07:27:22;13.00;92.90
1988;DHT22;12775;46.994;15.498;2023-04-10T07:29:53;13.20;94.00
1988;DHT22;12775;46.994;15.498;2023-04-10T07:32:18;13.10;93.90
1988;DHT22;12775;46.994;15.498;2023-04-10T07:34:44;13.40;93.10
1988;DHT22;12775;46.994;15.498;2023-04-10T07:37:11;13.70;92.30
1988;DHT22;12775;46.994;15.498;2023-04-10T07:39:38;14.00;92.00
1988;DHT22;12775;46.994;15.498;2023-04-10T07:42:06;14.10;91.00
1988;DHT22;12775;46.994;15.498;2023-04-10T07:44:33;14.10;92.50
1988;DHT22;12775;46.994;15.498;2023-04-10T07:47:01;14.20;91.80
1988;DHT22;12775;46.994;15.498;2023-04-10T07:49:28;14.30;90.70
1988;DHT22;12775;46.994;15.498;2023-04-10T07:51:55;14.50;93.70
1988;DHT22;12775;46.994;15.498;2023-04-10T07:54:22;14.60;87.70
1988;DHT22;12775;46.994;15.498;2023-04-10T07:56:51;14.80;90.80
1988;DHT22;12775;46.994;15.498;2023-04-10T07:59:18;14.90;83.50
1988;DHT22;12775;46.994;15.498;2023-04-10T08:01:45;14.90;83.80
1988;DHT22;12775;46.994;15.498;2023-04-10T08:04:13;15.00;88.70
1988;DHT22;12775;46.994;15.498;2023-04-10T08:06:40;15.20;86.40
1988;DHT22;12775;46.994;15.498;2023-04-10T08:09:09;15.40;87.50
1988;DHT22;12775;46.994;15.498;2023-04-10T08:11:35;15.30;87.40
1988;DHT22;12775;46.994;15.498;2023-04-10T08:14:02;15.50;90.50
1988;DHT22;12775;46.994;15.498;2023-04-10T08:16:30;15.80;88.00
1988;DHT22;12775;46.994;15.498;2023-04-10T08:18:57;16.00;90.40
1988;DHT22;12775;46.994;15.498;2023-04-10T08:21:24;16.30;85.60
1988;DHT22;12775;46.994;15.498;2023-04-10T08:23:53;16.50;83.60
1988;DHT22;12775;46.994;15.498;2023-04-10T08:26:20;16.60;79.80
1988;DHT22;12775;46.994;15.498;2023-04-10T08:28:48;16.90;80.20
1988;DHT22;12775;46.994;15.498;2023-04-10T08:31:16;16.70;75.40
1988;DHT22;12775;46.994;15.498;2023-04-10T08:33:43;17.00;83.00
1988;DHT22;12775;46.994;15.498;2023-04-10T08:36:11;17.20;81.60
1988;DHT22;12775;46.994;15.498;2023-04-10T08:38:38;17.30;81.60
1988;DHT22;12775;46.994;15.498;2023-04-10T08:41:08;17.70;78.50
1988;DHT22;12775;46.994;15.498;2023-04-10T08:43:35;18.00;78.30
1988;DHT22;12775;46.994;15.498;2023-04-10T08:46:02;18.30;77.30
1988;DHT22;12775;46.994;15.498;2023-04-10T08:48:33;18.50;75.80
1988;DHT22;12775;46.994;15.498;2023-04-10T08:50:58;18.80;64.20
1988;DHT22;12775;46.994;15.498;2023-04-10T08:53:25;18.90;71.00
1988;DHT22;12775;46.994;15.498;2023-04-10T08:55:52;18.90;71.30
1988;DHT22;12775;46.994;15.498;2023-04-10T08:58:20;19.00;65.20
1988;DHT22;12775;46.994;15.498;2023-04-10T09:00:48;18.50;69.50
1988;DHT22;12775;46.994;15.498;2023-04-10T09:03:15;18.70;68.50
1988;DHT22;12775;46.994;15.498;2023-04-10T09:05:43;18.50;62.10
1988;DHT22;12775;46.994;15.498;2023-04-10T09:08:10;18.60;60.20
1988;DHT22;12775;46.994;15.498;2023-04-10T09:10:38;18.40;67.60
1988;DHT22;12775;46.994;15.498;2023-04-10T09:13:07;18.40;63.90
1988;DHT22;12775;46.994;15.498;2023-04-10T09:15:54;18.60;65.60
1988;DHT22;12775;46.994;15.498;2023-04-10T09:18:28;18.80;62.10
1988;DHT22;12775;46.994;15.498;2023-04-10T09:20:50;18.90;63.50
1988;DHT22;12775;46.994;15.498;2023-04-10T09:23:20;19.10;64.70
1988;DHT22;12775;46.994;15.498;2023-04-10T09:25:47;18.80;61.70
1988;DHT22;12775;46.994;15.498;2023-04-10T09:28:15;18.70;67.40
1988;DHT22;12775;46.994;15.498;2023-04-10T09:30:43;18.50;59.20
1988;DHT22;12775;46.994;15.498;2023-04-10T09:33:20;18.50;64.00
1988;DHT22;12775;46.994;15.498;2023-04-10T09:35:46;18.50;60.40
1988;DHT22;12775;46.994;15.498;2023-04-10T09:38:16;18.40;60.00
1988;DHT22;12775;46.994;15.498;2023-04-10T09:40:43;17.80;58.60
1988;DHT22;12775;46.994;15.498;2023-04-10T09:43:24;18.20;58.40
1988;DHT22;12775;46.994;15.498;2023-04-10T09:45:52;18.50;57.40
1988;DHT22;12775;46.994;15.498;2023-04-10T09:48:18;18.50;58.00
1988;DHT22;12775;46.994;15.498;2023-04-10T09:50:45;18.50;68.20
1988;DHT22;12775;46.994;15.498;2023-04-10T09:53:14;18.60;61.80
1988;DHT22;12775;46.994;15.498;2023-04-10T09:55:40;18.60;68.70
1988;DHT22;12775;46.994;15.498;2023-04-10T09:58:09;18.40;73.90
1988;DHT22;12775;46.994;15.498;2023-04-10T10:00:40;18.60;70.00
1988;DHT22;12775;46.994;15.498;2023-04-10T10:03:08;19.00;72.20
1988;DHT22;12775;46.994;15.498;2023-04-10T10:05:37;19.20;66.30
1988;DHT22;12775;46.994;15.498;2023-04-10T10:08:03;19.10;66.30
1988;DHT22;12775;46.994;15.498;2023-04-10T10:10:29;19.30;66.00
1988;DHT22;12775;46.994;15.498;2023-04-10T10:12:58;19.50;60.30
1988;DHT22;12775;46.994;15.498;2023-04-10T10:15:30;19.60;69.90
1988;DHT22;12775;46.994;15.498;2023-04-10T10:18:03;19.50;58.50
1988;DHT22;12775;46.994;15.498;2023-04-10T10:20:30;19.90;61.20
1988;DHT22;12775;46.994;15.498;2023-04-10T10:22:57;19.80;63.10
1988;DHT22;12775;46.994;15.498;2023-04-10T10:25:24;19.50;61.50
1988;DHT22;12775;46.994;15.498;2023-04-10T10:27:52;19.50;58.50
1988;DHT22;12775;46.994;15.498;2023-04-10T10:30:19;19.10;57.20
1988;DHT22;12775;46.994;15.498;2023-04-10T10:32:47;19.20;57.80
1988;DHT22;12775;46.994;15.498;2023-04-10T10:35:15;19.20;60.50
1988;DHT22;12775;46.994;15.498;2023-04-10T10:37:42;18.60;61.00
1988;DHT22;12775;46.994;15.498;2023-04-10T10:40:11;18.70;58.70
1988;DHT22;12775;46.994;15.498;2023-04-10T10:43:47;18.40;60.60
1988;DHT22;12775;46.994;15.498;2023-04-10T10:45:24;18.20;55.80
1988;DHT22;12775;46.994;15.498;2023-04-10T10:47:51;17.90;53.70
1988;DHT22;12775;46.994;15.498;2023-04-10T10:50:18;17.90;56.60
1988;DHT22;12775;46.994;15.498;2023-04-10T10:52:46;17.90;57.10
1988;DHT22;12775;46.994;15.498;2023-04-10T10:55:28;17.70;57.60
1988;DHT22;12775;46.994;15.498;2023-04-10T10:57:55;17.70;57.60
1988;DHT22;12775;46.994;15.498;2023-04-10T11:00:23;17.70;56.00
1988;DHT22;12775;46.994;15.498;2023-04-10T11:03:32;17.90;55.30
1988;DHT22;12775;46.994;15.498;2023-04-10T11:05:51;18.20;54.40
1988;DHT22;12775;46.994;15.498;2023-04-10T11:08:17;18.00;54.20
1988;DHT22;12775;46.994;15.498;2023-04-10T11:11:02;17.90;53.80
1988;DHT22;12775;46.994;15.498;2023-04-10T11:13:31;17.90;55.80
1988;DHT22;12775;46.994;15.498;2023-04-10T11:15:58;17.80;53.60
1988;DHT22;12775;46.994;15.498;2023-04-10T11:21:08;18.40;59.90
1988;DHT22;12775;46.994;15.498;2023-04-10T11:23:35;18.40;54.60
1988;DHT22;12775;46.994;15.498;2023-04-10T11:26:02;18.40;54.20
1988;DHT22;12775;46.994;15.498;2023-04-10T11:28:37;18.20;54.80
1988;DHT22;12775;46.994;15.498;2023-04-10T11:31:13;18.20;54.80
1988;DHT22;12775;46.994;15.498;2023-04-10T11:33:39;17.90;55.40
1988;DHT22;12775;46.994;15.498;2023-04-10T11:36:07;17.80;53.90
1988;DHT22;12775;46.994;15.498;2023-04-10T11:38:34;17.90;56.10
1988;DHT22;12775;46.994;15.498;2023-04-10T11:41:02;17.70;55.30
1988;DHT22;12775;46.994;15.498;2023-04-10T11:43:29;17.30;55.40
1988;DHT22;12775;46.994;15.498;2023-04-10T11:45:59;17.10;54.20
1988;DHT22;12775;46.994;15.498;2023-04-10T11:50:57;17.30;55.90
1988;DHT22;12775;46.994;15.498;2023-04-10T11:53:24;17.30;54.30
1988;DHT22;12775;46.994;15.498;2023-04-10T11:55:51;17.50;54.50
1988;DHT22;12775;46.994;15.498;2023-04-10T11:58:28;17.30;55.30
1988;DHT22;12775;46.994;15.498;2023-04-10T12:00:58;17.30;55.10
1988;DHT22;12775;46.994;15.498;2023-04-10T12:03:33;17.70;58.80
1988;DHT22;12775;46.994;15.498;2023-04-10T12:06:01;17.70;55.00
1988;DHT22;12775;46.994;15.498;2023-04-10T12:08:30;18.00;57.30
1988;DHT22;12775;46.994;15.498;2023-04-10T12:10:57;18.00;55.00
1988;DHT22;12775;46.994;15.498;2023-04-10T12:13:25;18.40;55.00
1988;DHT22;12775;46.994;15.498;2023-04-10T12:15:52;18.50;58.30
1988;DHT22;12775;46.994;15.498;2023-04-10T12:18:20;18.50;56.00
1988;DHT22;12775;46.994;15.498;2023-04-10T12:20:46;19.00;70.30
1988;DHT22;12775;46.994;15.498;2023-04-10T12:23:14;19.20;65.60
1988;DHT22;12775;46.994;15.498;2023-04-10T12:25:41;19.50;62.80
1988;DHT22;12775;46.994;15.498;2023-04-10T12:28:09;19.50;64.40
1988;DHT22;12775;46.994;15.498;2023-04-10T12:30:36;19.80;58.40
1988;DHT22;12775;46.994;15.498;2023-04-10T12:33:03;20.00;61.50
1988;DHT22;12775;46.994;15.498;2023-04-10T12:35:38;20.20;61.60
1988;DHT22;12775;46.994;15.498;2023-04-10T12:38:05;20.30;55.90
1988;DHT22;12775;46.994;15.498;2023-04-10T12:40:32;20.30;58.20
1988;DHT22;12775;46.994;15.498;2023-04-10T12:43:00;20.50;59.30
1988;DHT22;12775;46.994;15.498;2023-04-10T12:48:06;20.60;55.50
1988;DHT22;12775;46.994;15.498;2023-04-10T12:50:44;20.70;56.10
1988;DHT22;12775;46.994;15.498;2023-04-10T12:53:02;20.80;51.40
1988;DHT22;12775;46.994;15.498;2023-04-10T12:55:29;20.70;55.80
1988;DHT22;12775;46.994;15.498;2023-04-10T12:57:56;20.80;55.10
1988;DHT22;12775;46.994;15.498;2023-04-10T13:00:23;20.70;58.40
1988;DHT22;12775;46.994;15.498;2023-04-10T13:02:51;20.70;59.40
1988;DHT22;12775;46.994;15.498;2023-04-10T13:05:18;20.50;60.00
1988;DHT22;12775;46.994;15.498;2023-04-10T13:07:45;20.20;61.30
1988;DHT22;12775;46.994;15.498;2023-04-10T13:10:13;20.20;61.40
1988;DHT22;12775;46.994;15.498;2023-04-10T13:12:40;20.40;61.70
1988;DHT22;12775;46.994;15.498;2023-04-10T13:15:07;20.30;61.50
1988;DHT22;12775;46.994;15.498;2023-04-10T13:17:34;20.10;53.80
1988;DHT22;12775;46.994;15.498;2023-04-10T13:20:00;19.90;54.60
1988;DHT22;12775;46.994;15.498;2023-04-10T13:22:28;20.40;59.10
1988;DHT22;12775;46.994;15.498;2023-04-10T13:24:55;20.60;59.40
1988;DHT22;12775;46.994;15.498;2023-04-10T13:27:22;20.80;60.30
1988;DHT22;12775;46.994;15.498;2023-04-10T13:29:50;21.00;59.30
1988;DHT22;12775;46.994;15.498;2023-04-10T13:32:17;21.00;55.20
1988;DHT22;12775;46.994;15.498;2023-04-10T13:34:44;21.10;59.80
1988;DHT22;12775;46.994;15.498;2023-04-10T13:37:11;21.10;59.80
1988;DHT22;12775;46.994;15.498;2023-04-10T13:39:38;21.10;61.50
1988;DHT22;12775;46.994;15.498;2023-04-10T13:42:06;21.30;58.50
1988;DHT22;12775;46.994;15.498;2023-04-10T13:44:33;21.30;59.20
1988;DHT22;12775;46.994;15.498;2023-04-10T13:47:01;20.90;58.20
1988;DHT22;12775;46.994;15.498;2023-04-10T13:49:28;20.90;60.00
1988;DHT22;12775;46.994;15.498;2023-04-10T13:51:56;21.10;58.40
1988;DHT22;12775;46.994;15.498;2023-04-10T13:54:24;21.20;62.00
1988;DHT22;12775;46.994;15.498;2023-04-10T13:56:51;21.10;60.00
1988;DHT22;12775;46.994;15.498;2023-04-10T13:59:18;20.90;60.50
1988;DHT22;12775;46.994;15.498;2023-04-10T14:01:46;21.20;60.00
1988;DHT22;12775;46.994;15.498;2023-04-10T14:04:13;21.20;57.40
1988;DHT22;12775;46.994;15.498;2023-04-10T14:06:41;21.10;53.90
1988;DHT22;12775;46.994;15.498;2023-04-10T14:09:08;21.10;51.10
1988;DHT22;12775;46.994;15.498;2023-04-10T14:11:35;20.80;52.30
1988;DHT22;12775;46.994;15.498;2023-04-10T14:14:02;20.50;51.90
1988;DHT22;12775;46.994;15.498;2023-04-10T14:16:30;20.10;53.50
1988;DHT22;12775;46.994;15.498;2023-04-10T14:18:57;20.10;59.40
1988;DHT22;12775;46.994;15.498;2023-04-10T14:21:24;20.40;53.20
1988;DHT22;12775;46.994;15.498;2023-04-10T14:23:52;20.60;54.60
1988;DHT22;12775;46.994;15.498;2023-04-10T14:26:18;20.60;54.60
1988;DHT22;12775;46.994;15.498;2023-04-10T14:28:47;20.40;55.50
1988;DHT22;12775;46.994;15.498;2023-04-10T14:31:14;20.40;55.60
1988;DHT22;12775;46.994;15.498;2023-04-10T14:33:41;20.50;51.60
1988;DHT22;12775;46.994;15.498;2023-04-10T14:36:08;20.90;53.40
1988;DHT22;12775;46.994;15.498;2023-04-10T14:38:36;20.90;48.80
1988;DHT22;12775;46.994;15.498;2023-04-10T14:41:03;20.90;53.90
1988;DHT22;12775;46.994;15.498;2023-04-10T14:43:30;20.90;54.00
1988;DHT22;12775;46.994;15.498;2023-04-10T14:45:57;21.20;58.90
1988;DHT22;12775;46.994;15.498;2023-04-10T14:48:24;21.30;59.50
1988;DHT22;12775;46.994;15.498;2023-04-10T14:50:53;20.90;59.90
1988;DHT22;12775;46.994;15.498;2023-04-10T14:53:19;20.90;59.90
1988;DHT22;12775;46.994;15.498;2023-04-10T14:55:46;20.80;59.70
1988;DHT22;12775;46.994;15.498;2023-04-10T14:58:13;21.10;58.40
1988;DHT22;12775;46.994;15.498;2023-04-10T15:00:41;21.10;58.10
1988;DHT22;12775;46.994;15.498;2023-04-10T15:03:08;21.10;58.80
1988;DHT22;12775;46.994;15.498;2023-04-10T15:05:35;20.80;58.60
1988;DHT22;12775;46.994;15.498;2023-04-10T15:08:03;20.90;56.40
1988;DHT22;12775;46.994;15.498;2023-04-10T15:10:30;21.00;56.30
1988;DHT22;12775;46.994;15.498;2023-04-10T15:12:58;21.10;56.30
1988;DHT22;12775;46.994;15.498;2023-04-10T15:15:25;21.10;57.30
1988;DHT22;12775;46.994;15.498;2023-04-10T15:17:52;21.10;51.90
1988;DHT22;12775;46.994;15.498;2023-04-10T15:20:20;20.60;50.30
1988;DHT22;12775;46.994;15.498;2023-04-10T15:22:47;20.30;48.80
1988;DHT22;12775;46.994;15.498;2023-04-10T15:25:14;20.20;50.10
1988;DHT22;12775;46.994;15.498;2023-04-10T15:27:42;20.30;53.80
1988;DHT22;12775;46.994;15.498;2023-04-10T15:30:10;20.50;54.10
1988;DHT22;12775;46.994;15.498;2023-04-10T15:32:38;20.40;54.00
1988;DHT22;12775;46.994;15.498;2023-04-10T15:35:06;20.40;58.00
1988;DHT22;12775;46.994;15.498;2023-04-10T15:37:33;20.50;56.00
1988;DHT22;12775;46.994;15.498;2023-04-10T15:40:02;20.60;53.10
1988;DHT22;12775;46.994;15.498;2023-04-10T15:42:28;20.50;54.70
1988;DHT22;12775;46.994;15.498;2023-04-10T15:44:55;20.60;57.40
1988;DHT22;12775;46.994;15.498;2023-04-10T15:47:22;20.20;59.30
1988;DHT22;12775;46.994;15.498;2023-04-10T15:49:49;20.20;59.30
1988;DHT22;12775;46.994;15.498;2023-04-10T15:52:17;19.80;59.00